LiveATC.Net - Listen to live air traffic control over the Internet!


ICAO: KFHR  IATA: FHR   Airport: Friday Harbor Airport
City: Friday Harbor   State/Province: Washington
Country: United States   Continent: North America
KFHR METAR Weather: KFHR 210353Z AUTO 35006KT 10SM CLR 04/M01 A2996 RMK AO2 SLP146 T00441006
KFHR Flight Activity (FlightAware)
KFHR Webcam:  (Airport Webcams) 
KFHR Airport Info   (iFlightPlanner)
KFHR VFR Sectional Chart   (iFlightPlanner) 
KFHR IFR Low Chart   (iFlightPlanner) 

KFHR CTAF
Feed Status: UP   Listeners: 0
Listen in your browser - HTML5 player (in browser, HTML5)
Click here to listen with your own player (launches your MP3 player)
KFHR CTAF Audio Archives
FacilityFrequency
KFHR/San Juan Islands CTAF128.250

NOTICE

Unauthorized use prohibited. See LiveATC.net Terms of Service


Find LiveATC Audio Streams


Airport/ARTCC Code

Frequency Search
(e.g., 124.400, 128.75)
Site-wide search
 


Browse LiveATC Feeds
Top 50 LiveATC Feeds
LiveATC Feed Map
Bad Weather Areas

LiveATC FAQ
Offer LiveATC feed
Contact LiveATC.net
Press Inquiries

LiveATC on iPhone
LiveATC on Android

Windows Phone
Windows 8/10

LiveATC Mobile
(Mobile browser)

ATC Audio Archives
Interesting Recordings

LiveATC Forums


Home Page
About LiveATC.net
Make a Donation
Terms of Use
Privacy Policy

Canadian Air Freqs

AIRMETs/SIGMETs

FAA Airport Status
Nat'l Airspace Status
Arrival Demand Charts


Server Software By:
Icecast.org
Liquidsoap